Time;durP1;ratioP1;P1;durP2;ratioP2;P2;SDS_P1;SDS_P2;PMS_P1;PMS_P2;Temp;Humidity;BMP_temperature;BMP_pressure;BME280_temperature;BME280_humidity;BME280_pressure;Samples;Min_cycle;Max_cycle;Signal;HPM_P1;HPM_P2
2022/03/25 00:00:16;;;;;;;20.83;7.50;;;6.80;99.90;;;;;;5092181;28;20313;-71
2022/03/25 00:02:43;;;;;;;16.03;6.80;;;6.60;99.90;;;;;;5092660;28;20213;-71
2022/03/25 00:05:11;;;;;;;28.40;8.40;;;6.60;99.90;;;;;;5093149;28;20202;-71
2022/03/25 00:07:37;;;;;;;15.57;7.03;;;6.60;99.90;;;;;;5093637;28;20254;-71
2022/03/25 00:10:05;;;;;;;16.37;6.63;;;6.60;99.90;;;;;;5093561;28;20238;-71
2022/03/25 00:12:32;;;;;;;20.77;7.00;;;6.50;99.90;;;;;;5093138;28;20746;-71
2022/03/25 00:15:01;;;;;;;13.73;5.93;;;6.50;99.90;;;;;;5093268;28;20293;-71
2022/03/25 00:17:28;;;;;;;15.57;6.37;;;6.40;99.90;;;;;;5093165;28;20261;-71
2022/03/25 00:19:54;;;;;;;17.53;6.97;;;6.50;99.90;;;;;;5092853;28;20581;-70
2022/03/25 00:22:21;;;;;;;17.47;6.63;;;6.50;99.90;;;;;;5093250;28;20212;-71
2022/03/25 00:24:48;;;;;;;15.27;6.30;;;6.50;99.90;;;;;;5092976;28;20213;-71
2022/03/25 00:27:15;;;;;;;16.27;7.17;;;6.40;99.90;;;;;;5092917;28;20258;-71
2022/03/25 00:29:42;;;;;;;13.07;5.93;;;6.40;99.90;;;;;;5093126;28;20653;-71
2022/03/25 00:32:10;;;;;;;15.00;6.23;;;6.40;99.90;;;;;;5092983;28;20207;-70
2022/03/25 00:34:37;;;;;;;15.93;7.90;;;6.30;99.90;;;;;;5092096;28;20195;-71
2022/03/25 00:37:04;;;;;;;19.00;6.47;;;6.30;99.90;;;;;;5092905;28;20233;-71
2022/03/25 00:39:31;;;;;;;20.47;6.60;;;6.30;99.90;;;;;;5092991;28;20265;-71
2022/03/25 00:41:58;;;;;;;18.40;7.30;;;6.30;99.90;;;;;;5093066;28;20199;-71
2022/03/25 00:44:25;;;;;;;15.03;7.33;;;6.30;99.90;;;;;;5091921;28;20206;-71
2022/03/25 00:46:52;;;;;;;18.10;6.80;;;6.40;99.90;;;;;;5092509;28;20205;-71
2022/03/25 00:49:20;;;;;;;22.57;6.50;;;6.30;99.90;;;;;;5092471;28;20672;-71
2022/03/25 00:51:47;;;;;;;17.93;6.97;;;6.40;99.90;;;;;;5091595;28;20617;-71
2022/03/25 00:54:15;;;;;;;14.03;6.47;;;6.30;99.90;;;;;;5092175;28;20685;-71
2022/03/25 00:56:41;;;;;;;16.60;6.07;;;6.30;99.90;;;;;;5095821;28;20224;-71
2022/03/25 00:59:09;;;;;;;17.10;6.47;;;6.20;99.90;;;;;;5096557;28;20261;-70
2022/03/25 01:01:36;;;;;;;15.67;6.63;;;6.10;99.90;;;;;;5095806;28;20202;-70
2022/03/25 01:04:03;;;;;;;18.17;7.17;;;6.10;99.90;;;;;;5096671;28;20210;-71
2022/03/25 01:06:32;;;;;;;15.07;6.70;;;6.10;99.90;;;;;;5096720;28;20210;-71
2022/03/25 01:08:59;;;;;;;14.10;6.37;;;6.00;99.90;;;;;;5096679;28;20237;-71
2022/03/25 01:11:26;;;;;;;20.43;7.07;;;6.00;99.90;;;;;;5096505;28;20202;-71
2022/03/25 01:13:53;;;;;;;16.03;7.23;;;6.00;99.90;;;;;;5096895;28;20214;-70
2022/03/25 01:16:20;;;;;;;16.07;5.93;;;5.90;99.90;;;;;;5097437;28;20206;-71
2022/03/25 01:18:47;;;;;;;16.97;6.80;;;5.80;99.90;;;;;;5096107;28;20222;-70
2022/03/25 01:21:15;;;;;;;15.70;6.57;;;5.90;99.90;;;;;;5094713;28;20198;-70
2022/03/25 01:23:43;;;;;;;15.67;6.17;;;5.90;99.90;;;;;;5095060;28;20198;-71
2022/03/25 01:26:10;;;;;;;22.07;7.27;;;5.90;99.90;;;;;;5095539;28;20297;-70
2022/03/25 01:28:37;;;;;;;16.63;6.70;;;5.80;99.90;;;;;;5096004;28;20584;-70
2022/03/25 01:31:04;;;;;;;18.10;7.67;;;5.70;99.90;;;;;;5095516;28;20202;-70
2022/03/25 01:33:31;;;;;;;15.63;7.07;;;5.70;99.90;;;;;;5096001;28;20208;-70
2022/03/25 01:35:58;;;;;;;18.60;6.53;;;5.70;99.90;;;;;;5096358;28;20203;-70
2022/03/25 01:38:25;;;;;;;16.27;6.20;;;5.80;99.90;;;;;;5095884;28;20698;-70
2022/03/25 01:40:54;;;;;;;18.93;7.47;;;5.70;99.90;;;;;;5095895;28;20237;-70
2022/03/25 01:43:21;;;;;;;15.40;6.93;;;5.60;99.90;;;;;;5095968;28;20203;-70
2022/03/25 01:45:48;;;;;;;16.47;6.73;;;5.70;99.90;;;;;;5095636;28;20213;-71
2022/03/25 01:48:16;;;;;;;16.80;7.00;;;5.70;99.90;;;;;;5094775;28;20219;-71
2022/03/25 01:50:46;;;;;;;14.63;7.27;;;5.70;99.90;;;;;;5095569;28;20203;-71
2022/03/25 01:53:15;;;;;;;20.23;7.27;;;5.80;99.90;;;;;;5095803;28;20244;-70
2022/03/25 01:55:50;;;;;;;15.60;6.60;;;5.80;99.90;;;;;;5095516;28;20198;-70
2022/03/25 01:58:19;;;;;;;20.73;7.90;;;5.80;99.90;;;;;;5095763;28;20308;-70
2022/03/25 02:00:46;;;;;;;18.30;6.67;;;5.90;99.90;;;;;;5094825;28;20619;-70
2022/03/25 02:03:13;;;;;;;19.43;7.13;;;5.80;99.90;;;;;;5095797;28;20205;-70
2022/03/25 02:05:40;;;;;;;16.03;7.23;;;5.70;99.90;;;;;;5094765;28;20603;-70
2022/03/25 02:08:08;;;;;;;17.60;7.30;;;5.70;99.90;;;;;;5094240;28;20230;-70
2022/03/25 02:10:35;;;;;;;19.80;7.00;;;5.70;99.90;;;;;;5094516;28;20718;-70
2022/03/25 02:13:02;;;;;;;16.37;6.93;;;5.60;99.90;;;;;;5095034;28;20210;-70
2022/03/25 02:15:34;;;;;;;18.47;7.27;;;5.50;99.90;;;;;;5095335;28;20542;-70
2022/03/25 02:18:03;;;;;;;14.33;6.93;;;5.40;99.90;;;;;;5095164;28;20226;-70
2022/03/25 02:20:30;;;;;;;20.80;7.33;;;5.40;99.90;;;;;;5094768;28;20230;-70
2022/03/25 02:22:58;;;;;;;15.60;6.37;;;5.50;99.90;;;;;;5095105;28;20211;-70
2022/03/25 02:25:26;;;;;;;18.60;7.07;;;5.60;99.90;;;;;;5094764;28;20206;-70
2022/03/25 02:27:53;;;;;;;19.80;7.43;;;5.70;99.90;;;;;;5094494;28;20863;-70
2022/03/25 02:30:20;;;;;;;19.83;7.80;;;5.70;99.90;;;;;;5094732;28;20662;-70
2022/03/25 02:32:47;;;;;;;18.13;7.90;;;5.50;99.90;;;;;;5094027;28;20542;-70
2022/03/25 02:35:14;;;;;;;18.73;8.37;;;5.30;99.90;;;;;;5094877;28;20210;-70
2022/03/25 02:37:41;;;;;;;16.03;7.20;;;5.20;99.90;;;;;;5094871;28;20223;-70
2022/03/25 02:40:10;;;;;;;21.13;7.73;;;5.20;99.90;;;;;;5095050;28;20230;-70
2022/03/25 02:42:38;;;;;;;20.53;8.00;;;5.10;99.90;;;;;;5094867;28;20203;-71
2022/03/25 02:45:06;;;;;;;19.57;8.20;;;5.20;99.90;;;;;;5094593;28;20211;-70
2022/03/25 02:47:33;;;;;;;15.63;7.33;;;5.20;99.90;;;;;;5094200;28;20226;-70
2022/03/25 02:50:00;;;;;;;20.00;8.13;;;5.20;99.90;;;;;;5094416;28;20215;-70
2022/03/25 02:52:27;;;;;;;20.07;8.33;;;5.20;99.90;;;;;;5093776;28;20209;-70
2022/03/25 02:54:54;;;;;;;19.47;7.33;;;5.20;99.90;;;;;;5094098;28;20206;-70
2022/03/25 02:57:22;;;;;;;18.23;7.90;;;5.10;99.90;;;;;;5093918;28;20223;-70
2022/03/25 02:59:48;;;;;;;14.97;7.17;;;5.10;99.90;;;;;;5094156;28;20222;-70
2022/03/25 03:02:15;;;;;;;15.07;7.30;;;5.10;99.90;;;;;;5094052;28;20214;-70
2022/03/25 03:04:42;;;;;;;18.17;8.87;;;5.10;99.90;;;;;;5094176;28;20766;-70
2022/03/25 03:07:09;;;;;;;24.37;9.07;;;5.10;99.90;;;;;;5094065;28;20202;-71
2022/03/25 03:09:36;;;;;;;15.57;7.47;;;5.10;99.90;;;;;;5093741;28;20198;-70
2022/03/25 03:12:04;;;;;;;17.10;8.40;;;5.10;99.90;;;;;;5093865;28;20229;-70
2022/03/25 03:14:32;;;;;;;18.77;8.10;;;5.20;99.90;;;;;;5093854;28;20198;-71
2022/03/25 03:16:59;;;;;;;19.97;7.87;;;5.20;99.90;;;;;;5093883;28;20213;-70
2022/03/25 03:19:26;;;;;;;20.23;8.50;;;5.20;99.90;;;;;;5093522;28;20203;-71
2022/03/25 03:21:53;;;;;;;21.53;8.90;;;5.10;99.90;;;;;;5093907;28;20657;-70
2022/03/25 03:24:20;;;;;;;23.13;8.37;;;5.00;99.90;;;;;;5094288;28;20203;-70
2022/03/25 03:26:47;;;;;;;22.27;8.80;;;5.00;99.90;;;;;;5093599;28;20218;-70
2022/03/25 03:29:14;;;;;;;15.50;7.23;;;5.00;99.90;;;;;;5093523;28;20230;-71
2022/03/25 03:31:42;;;;;;;19.20;7.83;;;5.10;99.90;;;;;;5092059;28;20632;-71
2022/03/25 03:34:09;;;;;;;19.87;9.00;;;5.00;99.90;;;;;;5093133;28;20194;-70
2022/03/25 03:36:36;;;;;;;20.70;8.60;;;5.00;99.90;;;;;;5092977;28;20198;-70
2022/03/25 03:39:03;;;;;;;20.50;8.33;;;4.80;99.90;;;;;;5092788;28;20222;-70
2022/03/25 03:41:29;;;;;;;23.53;9.23;;;4.80;99.90;;;;;;5093105;28;20230;-70
2022/03/25 03:43:56;;;;;;;18.87;7.93;;;4.80;99.90;;;;;;5093745;28;20209;-70
2022/03/25 03:46:23;;;;;;;18.20;8.13;;;4.90;99.90;;;;;;5093633;28;20206;-71
2022/03/25 03:48:52;;;;;;;23.17;7.87;;;5.00;99.90;;;;;;5092957;28;20226;-70
2022/03/25 03:51:19;;;;;;;18.97;8.27;;;5.00;99.90;;;;;;5093014;28;20665;-71
2022/03/25 03:53:45;;;;;;;23.30;8.70;;;4.90;99.90;;;;;;5093353;28;20671;-71
2022/03/25 03:56:12;;;;;;;21.53;8.60;;;4.90;99.90;;;;;;5093241;28;20198;-70
2022/03/25 03:58:40;;;;;;;21.03;7.77;;;4.90;99.90;;;;;;5093504;28;20227;-71
2022/03/25 04:01:07;;;;;;;18.43;8.23;;;4.80;99.90;;;;;;5093424;28;20304;-70
2022/03/25 04:03:33;;;;;;;16.00;7.87;;;4.70;99.90;;;;;;5093526;28;20209;-70
2022/03/25 04:06:02;;;;;;;20.67;8.03;;;4.60;99.90;;;;;;5093287;28;20203;-71
2022/03/25 04:08:29;;;;;;;21.20;9.30;;;4.60;99.90;;;;;;5092715;28;20218;-70
2022/03/25 04:10:56;;;;;;;21.43;8.60;;;4.70;99.90;;;;;;5092793;28;20202;-71
2022/03/25 04:13:23;;;;;;;23.27;7.90;;;4.70;99.90;;;;;;5093106;28;20214;-71
2022/03/25 04:15:50;;;;;;;19.40;8.17;;;4.70;99.90;;;;;;5093423;28;20203;-70
2022/03/25 04:18:17;;;;;;;21.90;8.40;;;4.70;99.90;;;;;;5093213;28;20248;-70
2022/03/25 04:20:44;;;;;;;20.93;7.73;;;4.60;99.90;;;;;;5093076;28;20237;-70
2022/03/25 04:23:12;;;;;;;24.90;8.93;;;4.50;99.90;;;;;;5092684;28;20653;-71
2022/03/25 04:25:39;;;;;;;25.83;9.43;;;4.50;99.90;;;;;;5092779;28;20210;-70
2022/03/25 04:28:05;;;;;;;26.17;8.80;;;4.50;99.90;;;;;;5093053;28;20226;-70
2022/03/25 04:30:34;;;;;;;19.87;8.33;;;4.50;99.90;;;;;;5092527;28;20215;-70
2022/03/25 04:33:02;;;;;;;19.30;8.70;;;4.50;99.90;;;;;;5091909;28;20653;-71
2022/03/25 04:35:29;;;;;;;16.90;8.00;;;4.50;99.90;;;;;;5092767;28;20297;-71
2022/03/25 04:37:56;;;;;;;22.47;9.30;;;4.50;99.90;;;;;;5093032;28;20222;-70
2022/03/25 04:40:26;;;;;;;21.67;8.67;;;4.40;99.90;;;;;;5092591;28;20218;-71
2022/03/25 04:42:54;;;;;;;22.10;8.60;;;4.40;99.90;;;;;;5092855;28;20199;-71
2022/03/25 04:45:24;;;;;;;19.13;8.40;;;4.40;99.90;;;;;;5093123;28;20297;-70
2022/03/25 04:47:51;;;;;;;18.50;7.47;;;4.40;99.90;;;;;;5092867;28;20261;-70
2022/03/25 04:50:18;;;;;;;18.67;8.80;;;4.60;99.90;;;;;;5092978;28;20213;-71
2022/03/25 04:52:46;;;;;;;23.50;9.63;;;4.60;99.90;;;;;;5092646;28;20198;-70
2022/03/25 04:55:13;;;;;;;18.47;8.23;;;4.50;99.90;;;;;;5093015;28;20202;-71
2022/03/25 04:57:42;;;;;;;22.07;8.57;;;4.30;99.90;;;;;;5078088;28;20226;-70
2022/03/25 05:00:10;;;;;;;23.83;10.27;;;4.40;99.90;;;;;;5072559;28;20326;-70
2022/03/25 05:02:37;;;;;;;24.97;10.10;;;4.30;99.90;;;;;;5072595;28;20211;-71
2022/03/25 05:05:05;;;;;;;23.43;9.87;;;4.30;99.90;;;;;;5072593;28;20565;-71
2022/03/25 05:07:32;;;;;;;22.63;9.40;;;4.40;99.90;;;;;;5072573;28;20220;-70
2022/03/25 05:09:59;;;;;;;22.63;9.60;;;4.30;99.90;;;;;;5072295;28;20199;-69
2022/03/25 05:12:26;;;;;;;24.33;9.93;;;4.20;99.90;;;;;;5072472;28;20218;-69
2022/03/25 05:14:55;;;;;;;19.53;10.00;;;4.30;99.90;;;;;;5072529;28;20203;-69
2022/03/25 05:17:22;;;;;;;21.37;8.97;;;4.30;99.90;;;;;;5072340;28;20223;-70
2022/03/25 05:19:48;;;;;;;29.10;10.07;;;4.30;99.90;;;;;;5072239;28;20225;-69
2022/03/25 05:22:15;;;;;;;25.60;9.83;;;4.40;99.90;;;;;;5072325;28;20218;-70
2022/03/25 05:24:42;;;;;;;20.87;8.87;;;4.40;99.90;;;;;;5084835;22;20231;-72
2022/03/25 05:27:09;;;;;;;25.63;10.17;;;4.30;99.90;;;;;;5071847;28;20658;-72
2022/03/25 05:29:36;;;;;;;24.07;9.77;;;4.30;99.90;;;;;;5072058;28;20199;-71
2022/03/25 05:32:05;;;;;;;27.90;9.87;;;4.30;99.90;;;;;;5072256;28;20211;-72
2022/03/25 05:34:31;;;;;;;34.83;10.13;;;4.30;99.90;;;;;;5071721;28;20204;-71
2022/03/25 05:36:58;;;;;;;22.90;9.90;;;4.40;99.90;;;;;;5072135;28;20546;-73
2022/03/25 05:39:25;;;;;;;26.37;9.50;;;4.40;99.90;;;;;;5071770;28;20207;-72
2022/03/25 05:41:52;;;;;;;26.67;9.77;;;4.40;99.90;;;;;;5073297;28;20234;-72
2022/03/25 05:44:18;;;;;;;24.40;9.57;;;4.40;99.90;;;;;;5075690;28;20302;-72
2022/03/25 05:46:45;;;;;;;24.87;10.57;;;4.40;99.90;;;;;;5075571;28;20659;-72
2022/03/25 05:49:13;;;;;;;22.63;9.30;;;4.50;99.90;;;;;;5075742;28;20246;-71
2022/03/25 05:51:40;;;;;;;26.60;11.10;;;4.50;99.90;;;;;;5075726;28;20204;-72
2022/03/25 05:54:07;;;;;;;23.37;10.73;;;4.50;99.90;;;;;;5076330;28;20208;-72
2022/03/25 05:56:34;;;;;;;20.80;9.07;;;4.60;99.90;;;;;;5075666;28;20203;-72
2022/03/25 05:59:01;;;;;;;24.67;9.63;;;4.60;99.90;;;;;;5075616;28;20223;-72
2022/03/25 06:01:29;;;;;;;23.77;9.97;;;4.60;99.90;;;;;;5075158;28;20227;-71
2022/03/25 06:03:55;;;;;;;23.87;10.00;;;4.70;99.90;;;;;;5075443;28;20235;-73
2022/03/25 06:06:24;;;;;;;27.13;9.30;;;4.80;99.90;;;;;;5075262;28;20535;-73
2022/03/25 06:08:51;;;;;;;28.27;10.43;;;4.90;99.90;;;;;;5075495;28;20227;-71
2022/03/25 06:11:18;;;;;;;25.97;9.90;;;4.90;99.90;;;;;;5074186;28;20213;-71
2022/03/25 06:13:45;;;;;;;21.57;9.87;;;5.00;99.90;;;;;;5074669;28;20654;-71
2022/03/25 06:16:12;;;;;;;22.10;10.13;;;5.20;99.90;;;;;;5075074;28;20199;-72
2022/03/25 06:18:38;;;;;;;24.77;10.20;;;5.40;99.90;;;;;;5075380;28;20310;-71
2022/03/25 06:21:05;;;;;;;27.47;10.93;;;5.60;99.90;;;;;;5075288;28;20233;-71
2022/03/25 06:23:33;;;;;;;26.40;11.47;;;6.00;99.90;;;;;;5075074;28;20222;-71
2022/03/25 06:26:00;;;;;;;27.13;10.50;;;6.40;99.90;;;;;;5075153;28;20211;-71
2022/03/25 06:28:27;;;;;;;27.33;10.17;;;6.70;99.90;;;;;;5075062;28;20759;-70
2022/03/25 06:30:54;;;;;;;25.83;10.57;;;7.10;99.90;;;;;;5074524;28;20227;-71
2022/03/25 06:33:21;;;;;;;24.43;10.23;;;7.50;99.90;;;;;;5075028;28;20245;-71
2022/03/25 06:35:47;;;;;;;24.20;10.00;;;7.80;99.90;;;;;;5074366;28;20214;-70
2022/03/25 06:38:14;;;;;;;26.13;10.80;;;8.20;99.90;;;;;;5074670;28;20234;-71
2022/03/25 06:40:43;;;;;;;25.03;9.77;;;8.50;99.90;;;;;;5074688;28;20239;-71
2022/03/25 06:43:09;;;;;;;23.93;10.03;;;8.90;99.90;;;;;;5074658;28;20207;-71
2022/03/25 06:45:36;;;;;;;31.97;11.07;;;9.40;99.90;;;;;;5075058;28;20213;-71
2022/03/25 06:48:03;;;;;;;29.83;12.00;;;9.70;99.90;;;;;;5075222;28;20581;-70
2022/03/25 06:50:30;;;;;;;27.73;10.63;;;10.00;99.90;;;;;;5074383;28;20210;-70
2022/03/25 06:53:01;;;;;;;30.57;11.63;;;10.50;99.90;;;;;;5073993;28;20204;-70
2022/03/25 06:55:28;;;;;;;25.23;11.60;;;10.60;99.90;;;;;;5073410;28;20299;-71
2022/03/25 06:57:57;;;;;;;22.50;10.50;;;11.20;99.90;;;;;;5054122;28;20224;-71
2022/03/25 07:00:25;;;;;;;26.23;11.03;;;11.70;99.90;;;;;;5053398;28;20208;-71
2022/03/25 07:02:52;;;;;;;26.17;11.13;;;11.90;99.90;;;;;;5054542;28;20254;-70
2022/03/25 07:05:19;;;;;;;27.87;11.40;;;12.20;99.90;;;;;;5054614;28;20203;-71
2022/03/25 07:07:46;;;;;;;26.97;10.77;;;12.30;99.90;;;;;;5054408;28;20702;-70
2022/03/25 07:10:16;;;;;;;27.20;10.90;;;12.80;99.90;;;;;;5054265;28;20208;-71
2022/03/25 07:12:44;;;;;;;28.27;11.60;;;13.20;99.90;;;;;;5054441;28;20204;-72
2022/03/25 07:15:14;;;;;;;28.97;11.70;;;13.40;99.90;;;;;;5054520;28;20253;-72
2022/03/25 07:17:41;;;;;;;28.97;11.47;;;13.70;99.90;;;;;;5054306;28;20236;-71
2022/03/25 07:20:14;;;;;;;29.13;12.03;;;13.80;99.90;;;;;;5054150;28;20208;-71
2022/03/25 07:22:40;;;;;;;25.17;11.23;;;14.20;99.90;;;;;;5053918;28;20286;-71
2022/03/25 07:25:08;;;;;;;25.37;10.73;;;14.70;99.90;;;;;;5053914;28;20218;-70
2022/03/25 07:27:35;;;;;;;22.73;10.07;;;15.20;99.90;;;;;;5053781;28;20231;-72
2022/03/25 07:30:02;;;;;;;22.13;10.47;;;15.60;99.50;;;;;;5054128;28;20215;-71
2022/03/25 07:32:30;;;;;;;24.10;10.70;;;16.00;98.50;;;;;;5053972;28;20206;-70
2022/03/25 07:34:57;;;;;;;26.37;10.97;;;16.00;97.30;;;;;;5062436;28;20211;-73
2022/03/25 07:37:24;;;;;;;22.77;10.93;;;16.40;97.20;;;;;;5072294;28;20234;-72
2022/03/25 07:39:50;;;;;;;23.35;10.77;;;16.90;96.40;;;;;;5072442;28;20694;-72
2022/03/25 07:42:17;;;;;;;25.23;11.35;;;17.40;95.80;;;;;;5073255;28;20227;-72
2022/03/25 07:44:44;;;;;;;22.92;10.95;;;17.40;95.10;;;;;;5073351;28;20233;-70
2022/03/25 07:47:12;;;;;;;22.92;10.27;;;17.70;94.80;;;;;;5073382;28;20567;-70
2022/03/25 07:49:40;;;;;;;23.98;11.57;;;17.80;93.80;;;;;;5073208;28;20199;-70
2022/03/25 07:52:08;;;;;;;24.52;11.15;;;18.10;93.50;;;;;;5073375;28;20297;-70
2022/03/25 07:54:35;;;;;;;24.45;11.65;;;17.90;93.40;;;;;;5073550;28;20571;-71
2022/03/25 07:57:02;;;;;;;24.17;11.02;;;17.80;93.70;;;;;;5072949;28;20650;-71
2022/03/25 07:59:30;;;;;;;23.55;10.52;;;17.70;93.70;;;;;;5073368;28;20214;-71
2022/03/25 08:01:58;;;;;;;24.73;11.35;;;18.20;92.70;;;;;;5072868;28;20231;-71
2022/03/25 08:04:24;;;;;;;23.02;10.73;;;18.20;92.30;;;;;;5073012;28;20207;-70
2022/03/25 08:06:53;;;;;;;27.50;12.73;;;18.40;92.30;;;;;;5073057;28;20207;-70
2022/03/25 08:09:20;;;;;;;25.63;11.23;;;17.90;92.70;;;;;;5073307;28;20209;-72
2022/03/25 08:11:48;;;;;;;27.95;11.73;;;18.00;92.80;;;;;;5069848;28;20207;-73
2022/03/25 08:14:16;;;;;;;23.52;11.15;;;18.50;92.30;;;;;;5072441;28;20215;-73
2022/03/25 08:16:45;;;;;;;24.27;11.38;;;18.50;91.90;;;;;;5072106;28;20253;-76
2022/03/25 08:19:12;;;;;;;24.17;11.85;;;17.70;92.60;;;;;;5072592;28;20241;-73
2022/03/25 08:21:39;;;;;;;26.05;12.38;;;17.60;92.70;;;;;;5071028;28;20237;-72
2022/03/25 08:29:51;;;;;;;27.23;12.43;;;18.70;91.30;;;;;;5044500;28;20211;-72
2022/03/25 08:32:19;;;;;;;28.27;12.30;;;18.60;91.10;;;;;;5071958;28;20231;-75
2022/03/25 08:34:46;;;;;;;30.73;12.23;;;18.50;90.90;;;;;;5072145;28;20203;-74
2022/03/25 08:37:13;;;;;;;26.87;12.57;;;18.30;91.80;;;;;;5072384;28;20255;-76
2022/03/25 08:39:41;;;;;;;26.08;12.98;;;18.00;92.20;;;;;;5072908;28;20214;-75
2022/03/25 08:42:08;;;;;;;26.52;12.10;;;18.30;91.40;;;;;;5071514;28;20582;-73
2022/03/25 08:44:35;;;;;;;29.92;13.32;;;18.20;91.40;;;;;;5072339;28;20203;-76
2022/03/25 08:47:03;;;;;;;33.57;14.53;;;18.00;91.30;;;;;;5072158;28;20218;-73
2022/03/25 08:49:32;;;;;;;30.00;13.83;;;18.30;91.20;;;;;;5072333;28;20615;-72
2022/03/25 08:51:59;;;;;;;30.03;13.23;;;18.30;91.40;;;;;;5071908;28;20206;-74
2022/03/25 08:54:26;;;;;;;31.20;13.73;;;18.30;91.10;;;;;;5072222;28;20203;-76
2022/03/25 08:56:54;;;;;;;35.60;14.57;;;18.20;91.10;;;;;;5071628;28;20724;-72
2022/03/25 08:59:21;;;;;;;31.17;13.13;;;18.00;91.40;;;;;;5072155;28;20508;-72
2022/03/25 09:01:48;;;;;;;34.10;14.40;;;17.80;91.50;;;;;;5071475;28;20727;-72
2022/03/25 09:04:15;;;;;;;33.63;14.57;;;17.70;91.70;;;;;;5072101;28;20297;-72
2022/03/25 09:06:42;;;;;;;34.17;13.97;;;17.40;92.20;;;;;;5070532;28;20217;-72
2022/03/25 09:09:08;;;;;;;31.73;13.50;;;17.50;92.20;;;;;;5071321;28;20223;-73
2022/03/25 09:11:36;;;;;;;32.20;14.57;;;17.30;92.70;;;;;;5072144;28;20207;-71
2022/03/25 09:14:05;;;;;;;32.60;14.23;;;17.60;92.20;;;;;;5072687;28;20559;-73
2022/03/25 09:16:32;;;;;;;35.10;15.53;;;17.70;92.00;;;;;;5073653;28;20638;-73
2022/03/25 09:18:59;;;;;;;27.87;14.17;;;17.90;91.90;;;;;;5076529;28;20219;-72
2022/03/25 09:21:26;;;;;;;32.20;14.87;;;17.70;91.90;;;;;;5075879;28;20338;-73
2022/03/25 09:23:53;;;;;;;33.10;15.30;;;17.90;91.80;;;;;;5076012;28;20211;-73
2022/03/25 09:26:19;;;;;;;35.63;16.10;;;17.90;92.30;;;;;;5076364;28;20203;-71
2022/03/25 09:28:46;;;;;;;39.07;14.97;;;17.50;91.60;;;;;;5075860;28;20223;-71
2022/03/25 09:31:15;;;;;;;35.43;13.83;;;16.50;93.00;;;;;;5076206;28;20246;-71
2022/03/25 09:33:41;;;;;;;35.33;14.23;;;15.90;93.80;;;;;;5076943;28;20574;-72
2022/03/25 09:36:09;;;;;;;32.53;13.53;;;15.70;94.50;;;;;;5076155;28;20199;-71
2022/03/25 09:38:36;;;;;;;34.10;14.60;;;15.50;94.40;;;;;;5076304;28;20226;-71
2022/03/25 09:41:04;;;;;;;36.87;15.73;;;15.10;94.80;;;;;;5076306;28;20294;-71
2022/03/25 09:43:31;;;;;;;35.60;13.23;;;15.00;94.80;;;;;;5075900;28;20235;-71
2022/03/25 09:45:57;;;;;;;31.13;13.67;;;14.80;95.30;;;;;;5076126;28;20200;-71
2022/03/25 09:48:26;;;;;;;31.00;13.23;;;14.60;95.40;;;;;;5075768;28;20551;-70
2022/03/25 09:50:53;;;;;;;29.13;12.33;;;14.50;95.60;;;;;;5075266;28;20684;-71
2022/03/25 09:53:20;;;;;;;32.07;12.60;;;14.50;94.70;;;;;;5075631;28;20207;-71
2022/03/25 09:55:48;;;;;;;28.60;11.47;;;14.30;94.70;;;;;;5075752;28;20662;-71
2022/03/25 09:58:18;;;;;;;25.77;10.97;;;14.30;94.50;;;;;;5075804;28;20558;-71
2022/03/25 10:00:49;;;;;;;28.23;11.53;;;14.30;94.50;;;;;;5075939;28;20601;-71
2022/03/25 10:03:23;;;;;;;27.53;11.57;;;14.20;95.10;;;;;;5075302;28;20241;-71
2022/03/25 10:06:01;;;;;;;31.00;11.77;;;14.30;95.40;;;;;;5075677;28;20207;-71
2022/03/25 10:08:31;;;;;;;28.33;11.67;;;14.60;95.50;;;;;;5075591;28;20259;-71
2022/03/25 10:11:13;;;;;;;24.37;9.90;;;14.70;95.00;;;;;;5075345;28;20282;-71
2022/03/25 10:13:40;;;;;;;26.37;9.63;;;14.70;94.30;;;;;;5075162;28;20213;-70
2022/03/25 10:16:26;;;;;;;21.07;9.57;;;14.70;93.20;;;;;;5075378;28;20195;-71
2022/03/25 10:18:57;;;;;;;23.23;7.87;;;14.70;92.70;;;;;;5075277;28;20219;-71
2022/03/25 10:21:25;;;;;;;23.77;9.70;;;14.70;92.40;;;;;;5075304;28;20203;-72
2022/03/25 10:23:52;;;;;;;18.73;8.17;;;14.50;92.10;;;;;;5075275;28;20217;-72
2022/03/25 10:26:19;;;;;;;18.70;7.87;;;14.50;92.50;;;;;;5075113;28;20203;-72
2022/03/25 10:28:50;;;;;;;16.37;7.30;;;14.50;91.90;;;;;;5073829;28;20253;-71
2022/03/25 10:31:18;;;;;;;19.57;7.53;;;14.50;91.10;;;;;;5075225;28;20284;-71
2022/03/25 10:33:46;;;;;;;21.20;7.60;;;14.60;91.70;;;;;;5075272;28;20207;-71
2022/03/25 10:36:15;;;;;;;24.67;8.60;;;14.70;92.00;;;;;;5074843;28;20199;-72
2022/03/25 10:38:48;;;;;;;19.27;7.87;;;14.70;92.10;;;;;;5075111;28;20748;-72
2022/03/25 10:41:17;;;;;;;20.27;8.60;;;14.90;92.40;;;;;;5075093;28;20203;-72
2022/03/25 10:43:59;;;;;;;26.17;8.97;;;15.00;92.50;;;;;;5074974;28;20227;-70
2022/03/25 10:46:28;;;;;;;20.63;8.53;;;15.20;92.20;;;;;;5074847;28;20243;-72
2022/03/25 10:48:54;;;;;;;20.67;8.33;;;15.30;91.80;;;;;;5074878;28;20245;-70
2022/03/25 10:51:22;;;;;;;15.63;7.27;;;15.10;91.50;;;;;;5074900;28;20210;-70
2022/03/25 10:53:57;;;;;;;19.27;8.30;;;14.90;91.30;;;;;;5074645;28;20207;-70
2022/03/25 10:56:24;;;;;;;20.10;8.23;;;15.00;91.60;;;;;;5074518;28;20203;-71
2022/03/25 10:58:55;;;;;;;24.47;8.97;;;15.10;92.00;;;;;;5074623;28;20244;-72
2022/03/25 11:01:22;;;;;;;18.77;7.37;;;15.20;92.00;;;;;;5074505;28;20207;-71
2022/03/25 11:03:50;;;;;;;19.93;8.17;;;15.20;91.40;;;;;;5074185;28;20231;-70
2022/03/25 11:06:18;;;;;;;17.33;6.97;;;15.40;91.20;;;;;;5074547;28;20226;-70
2022/03/25 11:08:45;;;;;;;18.20;7.20;;;15.60;89.90;;;;;;5074448;28;20233;-70
2022/03/25 11:11:16;;;;;;;19.83;7.77;;;15.60;88.00;;;;;;5074196;28;20207;-70
2022/03/25 11:13:48;;;;;;;13.83;6.10;;;15.70;89.60;;;;;;5074269;28;20295;-72
2022/03/25 11:16:17;;;;;;;21.00;7.00;;;15.70;88.30;;;;;;5074298;28;20547;-71
2022/03/25 11:18:47;;;;;;;15.07;6.17;;;15.60;88.40;;;;;;5074788;28;20231;-71
2022/03/25 11:21:15;;;;;;;16.23;7.10;;;15.70;89.50;;;;;;5074441;28;20208;-72
2022/03/25 11:23:46;;;;;;;24.30;8.20;;;15.70;87.80;;;;;;5079975;22;20726;-69
2022/03/25 11:26:18;;;;;;;18.50;6.90;;;15.60;89.00;;;;;;5053832;28;20403;-70
2022/03/25 11:28:46;;;;;;;19.53;7.67;;;15.70;89.50;;;;;;5054010;28;20228;-69
2022/03/25 11:31:13;;;;;;;14.93;6.60;;;15.90;88.90;;;;;;5054260;28;20208;-69
2022/03/25 11:34:09;;;;;;;22.70;7.60;;;16.00;88.00;;;;;;5054063;28;20579;-69
2022/03/25 11:36:40;;;;;;;15.23;6.73;;;16.00;87.30;;;;;;5019466;28;20663;-70
2022/03/25 11:39:18;;;;;;;18.93;6.97;;;16.00;87.00;;;;;;5053326;28;20224;-70
2022/03/25 11:41:46;;;;;;;18.30;6.90;;;16.10;87.80;;;;;;5053859;28;20212;-70
2022/03/25 11:44:25;;;;;;;13.80;6.43;;;16.10;88.00;;;;;;5053660;28;20322;-70
2022/03/25 11:47:14;;;;;;;14.87;6.60;;;16.20;86.20;;;;;;5053791;28;20427;-70
2022/03/25 11:49:43;;;;;;;14.60;6.23;;;16.30;86.50;;;;;;5053853;28;20210;-71
2022/03/25 11:52:28;;;;;;;13.87;6.07;;;16.50;86.00;;;;;;5054010;28;20287;-70
2022/03/25 11:54:58;;;;;;;17.33;5.97;;;16.50;85.70;;;;;;5052846;28;20606;-71
2022/03/25 11:57:28;;;;;;;18.07;6.90;;;16.50;86.10;;;;;;5053687;28;20224;-70
2022/03/25 11:59:56;;;;;;;14.37;5.97;;;16.50;85.40;;;;;;5053274;28;20201;-71
2022/03/25 12:02:23;;;;;;;13.27;5.83;;;16.50;84.10;;;;;;5053173;28;20228;-71
2022/03/25 12:04:50;;;;;;;12.57;5.37;;;16.40;85.00;;;;;;5053619;28;20255;-71
2022/03/25 12:07:17;;;;;;;12.03;5.67;;;16.40;84.20;;;;;;5053448;28;20250;-70
2022/03/25 12:09:46;;;;;;;19.30;6.10;;;16.40;84.60;;;;;;5053199;28;20667;-71
2022/03/25 12:12:13;;;;;;;15.10;5.17;;;16.40;84.40;;;;;;5053220;28;20204;-71
2022/03/25 12:15:10;;;;;;;11.33;5.30;;;16.40;84.40;;;;;;5053124;28;20215;-71
2022/03/25 12:17:38;;;;;;;13.03;5.37;;;16.60;85.00;;;;;;5052894;28;20319;-71
2022/03/25 12:20:07;;;;;;;12.90;6.07;;;16.70;82.50;;;;;;5053085;28;20634;-71
2022/03/25 12:22:43;;;;;;;10.93;5.00;;;16.70;82.60;;;;;;5052977;28;20782;-71
2022/03/25 12:25:29;;;;;;;13.43;5.60;;;16.80;82.50;;;;;;5053048;28;20223;-71
2022/03/25 12:27:56;;;;;;;12.47;5.23;;;16.80;82.20;;;;;;5052744;28;20224;-71
2022/03/25 12:30:34;;;;;;;12.37;4.97;;;16.80;83.20;;;;;;5053095;28;20574;-71
2022/03/25 12:33:07;;;;;;;12.50;5.60;;;16.90;83.40;;;;;;5053052;28;20207;-71
2022/03/25 12:35:37;;;;;;;11.57;4.43;;;17.00;81.90;;;;;;5053131;28;20211;-71
2022/03/25 12:38:14;;;;;;;13.80;4.97;;;16.90;82.10;;;;;;5052712;28;20745;-71
2022/03/25 12:40:41;;;;;;;12.83;5.20;;;17.00;83.70;;;;;;5052977;28;20258;-71
2022/03/25 12:43:11;;;;;;;14.50;5.33;;;17.10;81.60;;;;;;5049902;28;20231;-71
2022/03/25 12:45:41;;;;;;;10.87;4.90;;;17.20;81.40;;;;;;5051059;28;20208;-73
2022/03/25 12:48:10;;;;;;;13.83;5.50;;;17.30;81.20;;;;;;5051678;28;20583;-71